Hanseatic Scout — V2BM2 — position and weather

sailwx.info

Track history (hours):
 
Tides and Currents Weather Stations Pressure Air Temp Water Temp Dewpoint Dewpoint Depression Visibility Wind Speed Wind Dir Waves Ship Positions

Hanseatic Scout

Last reported at 2016-May-03 10:33 UTC. Time now 2016-May-03 10:37 UTC.
Position N 58°42' W 003°37'.

Length 89 m; draft 6.6 m.

Type: Ship. MMSI: 304867000.

Date/timePositionNaut miles runAvg speedWind from/ knotsBaromVisibWave heightAir tempDewpointWater temp
2016-May-03 10:33N 58°42' W 003°37'10 9.4
2016-May-03 09:31N 58°43' W 003°18'9 9.3
2016-May-03 08:33N 58°42' W 003°01'7 7.3
2016-May-03 07:33N 58°36' W 002°52'264 8.0
2016-May-01 22:33N 57°56' E 005°24'27 8.9
2016-May-01 19:33N 57°50' E 006°13'10 9.8
2016-May-01 18:33N 57°48' E 006°31'1010.0
2016-May-01 17:33N 57°48' E 006°50'1010.1
2016-May-01 16:33N 57°48' E 007°09'99 9.8
2016-May-01 06:27N 57°48' E 010°15'8 9.4
2016-May-01 05:33N 57°49' E 010°31'9 8.7
2016-May-01 04:33N 57°48' E 010°47'1010.0
2016-May-01 03:33N 57°41' E 011°00'10 9.9
2016-May-01 02:33N 57°35' E 011°14'1010.1
2016-May-01 01:33N 57°28' E 011°28'1010.2
2016-May-01 00:33N 57°18' E 011°34'1110.6
2016-Apr-30 23:33N 57°08' E 011°41'1110.6
2016-Apr-30 22:33N 56°58' E 011°47'1010.6
2016-Apr-30 21:33N 56°48' E 011°54'1110.8
2016-Apr-30 20:33N 56°38' E 011°59'1110.8
2016-Apr-30 19:33N 56°27' E 012°03'1010.2
2016-Apr-30 18:33N 56°17' E 012°08'1010.0
2016-Apr-30 17:34N 56°12' E 012°22'1211.7
2016-Apr-30 16:33N 56°04' E 012°38'1110.6
2016-Apr-30 15:33N 55°54' E 012°45'1111.1
2016-Apr-30 14:34N 55°43' E 012°41'1110.9
2016-Apr-30 13:33N 55°32' E 012°43'1010.4
2016-Apr-30 12:33N 55°22' E 012°41'9 8.8
2016-Apr-30 11:33N 55°16' E 012°53'1010.4
2016-Apr-30 10:33N 55°16' E 013°12'1010.4
2016-Apr-30 09:33N 55°14' E 013°30'1110.7
2016-Apr-30 08:33N 55°14' E 013°48'1110.7
2016-Apr-30 07:33N 55°14' E 014°07'9 9.2
2016-Apr-30 06:33N 55°18' E 014°22'1010.3
2016-Apr-30 05:33N 55°25' E 014°34'1010.1
2016-Apr-30 04:33N 55°27' E 014°52'1010.2
2016-Apr-30 03:33N 55°27' E 015°10'1010.3
2016-Apr-30 02:33N 55°28' E 015°28'1010.2
2016-Apr-30 01:33N 55°29' E 015°46'1010.2
2016-Apr-30 00:33N 55°30' E 016°04'1010.4
2016-Apr-29 23:33N 55°31' E 016°22'1010.3
2016-Apr-29 22:33N 55°32' E 016°40'1010.2
2016-Apr-29 21:33N 55°33' E 016°58'1010.3
2016-Apr-29 20:33N 55°34' E 017°16'1010.3
2016-Apr-29 19:33N 55°34' E 017°34'1010.4
2016-Apr-29 18:33N 55°35' E 017°53'1110.5
2016-Apr-29 17:33N 55°36' E 018°11'1010.5
2016-Apr-29 16:33N 55°37' E 018°30'  
2016-Apr-26 12:15N 55°40' E 019°37'11611.5
2016-Apr-26 02:12N 55°29' E 016°13'1811.1
2016-Apr-26 00:33N 55°27' E 015°41'1111.1
2016-Apr-25 23:33N 55°26' E 015°22'1111.0
2016-Apr-25 22:33N 55°25' E 015°03'1111.0
2016-Apr-25 21:33N 55°24' E 014°44'1110.7
2016-Apr-25 20:33N 55°17' E 014°29'1111.1
2016-Apr-25 19:33N 55°10' E 014°14'1211.7
2016-Apr-25 18:33N 55°10' E 013°54'1111.3
2016-Apr-25 17:33N 55°12' E 013°34'1111.3
2016-Apr-25 16:33N 55°13' E 013°15'1111.4
2016-Apr-25 15:33N 55°15' E 012°55'1110.9
2016-Apr-25 14:33N 55°19' E 012°37'1010.1
2016-Apr-25 13:33N 55°29' E 012°33'1211.5
2016-Apr-25 12:33N 55°27' E 012°13'1 0.8
2016-Apr-25 11:33N 55°27' E 012°12'0 0.0
2016-Apr-25 10:27N 55°27' E 012°12'0 0.0
2016-Apr-25 09:27N 55°27' E 012°12'0 0.0
2016-Apr-25 08:18N 55°27' E 012°12'0 0.0
2016-Apr-25 07:33N 55°27' E 012°12'0 0.0
2016-Apr-25 06:33N 55°27' E 012°12'0 0.0
2016-Apr-25 05:33N 55°27' E 012°12'0 0.0
2016-Apr-25 04:33N 55°27' E 012°12'0 0.0
2016-Apr-25 03:30N 55°27' E 012°12'0 0.0
2016-Apr-25 02:33N 55°27' E 012°12'0 0.0
2016-Apr-25 01:30N 55°27' E 012°12'0 0.0
2016-Apr-25 00:30N 55°27' E 012°12'0 0.0
2016-Apr-24 23:30N 55°27' E 012°12'0 0.0
2016-Apr-24 22:27N 55°27' E 012°12'0 0.0
2016-Apr-24 21:30N 55°27' E 012°12'0 0.0
2016-Apr-24 20:33N 55°27' E 012°12'0 0.0
2016-Apr-24 19:30N 55°27' E 012°12'0 0.0
2016-Apr-24 18:33N 55°27' E 012°12'0 0.0
2016-Apr-24 17:33N 55°27' E 012°12'5 4.8
2016-Apr-24 16:33N 55°28' E 012°20'1110.6
2016-Apr-24 15:33N 55°30' E 012°39'9 9.2
2016-Apr-24 14:33N 55°39' E 012°41'1110.9
2016-Apr-24 13:33N 55°50' E 012°40'1110.9
2016-Apr-24 12:33N 56°01' E 012°38'9 9.2
2016-Apr-24 11:33N 56°08' E 012°28'1111.0
2016-Apr-24 10:33N 56°14' E 012°12'2510.9
2016-Apr-24 08:16N 56°37' E 011°55'811.7
2016-Apr-24 07:33N 56°45' E 011°51'1211.7
2016-Apr-24 06:33N 56°56' E 011°44'1111.3
2016-Apr-24 05:33N 57°07' E 011°37'1111.3
2016-Apr-24 04:33N 57°18' E 011°30'1111.3
2016-Apr-24 03:33N 57°28' E 011°22'1111.1
2016-Apr-24 02:32N 57°36' E 011°07'1210.9
2016-Apr-24 01:26N 57°44' E 010°50'12211.0
2016-Apr-23 14:21N 57°42' E 007°03'1011.9
2016-Apr-23 13:30N 57°43' E 006°44'1010.1
2016-Apr-23 12:33N 57°48' E 006°28'1111.2
2016-Apr-23 11:33N 57°58' E 006°23'  
Track history (hours):
 
Tides and Currents Weather Stations Pressure Air Temp Water Temp Dewpoint Dewpoint Depression Visibility Wind Speed Wind Dir Waves Ship Positions

Hanseatic Scout

Last reported at 2016-May-03 10:33 UTC. Time now 2016-May-03 10:37 UTC.
Position N 58°42' W 003°37'.

Length 89 m; draft 6.6 m.

Type: Ship. MMSI: 304867000.

Date/timePositionNaut miles runAvg speedWind from/ knotsBaromVisibWave heightAir tempDewpointWater temp
2016-May-03 10:33N 58°42' W 003°37'10 9.4
2016-May-03 09:31N 58°43' W 003°18'9 9.3
2016-May-03 08:33N 58°42' W 003°01'7 7.3
2016-May-03 07:33N 58°36' W 002°52'264 8.0
2016-May-01 22:33N 57°56' E 005°24'27 8.9
2016-May-01 19:33N 57°50' E 006°13'10 9.8
2016-May-01 18:33N 57°48' E 006°31'1010.0
2016-May-01 17:33N 57°48' E 006°50'1010.1
2016-May-01 16:33N 57°48' E 007°09'99 9.8
2016-May-01 06:27N 57°48' E 010°15'8 9.4
2016-May-01 05:33N 57°49' E 010°31'9 8.7
2016-May-01 04:33N 57°48' E 010°47'1010.0
2016-May-01 03:33N 57°41' E 011°00'10 9.9
2016-May-01 02:33N 57°35' E 011°14'1010.1
2016-May-01 01:33N 57°28' E 011°28'1010.2
2016-May-01 00:33N 57°18' E 011°34'1110.6
2016-Apr-30 23:33N 57°08' E 011°41'1110.6
2016-Apr-30 22:33N 56°58' E 011°47'1010.6
2016-Apr-30 21:33N 56°48' E 011°54'1110.8
2016-Apr-30 20:33N 56°38' E 011°59'1110.8
2016-Apr-30 19:33N 56°27' E 012°03'1010.2
2016-Apr-30 18:33N 56°17' E 012°08'1010.0
2016-Apr-30 17:34N 56°12' E 012°22'1211.7
2016-Apr-30 16:33N 56°04' E 012°38'1110.6
2016-Apr-30 15:33N 55°54' E 012°45'1111.1
2016-Apr-30 14:34N 55°43' E 012°41'1110.9
2016-Apr-30 13:33N 55°32' E 012°43'1010.4
2016-Apr-30 12:33N 55°22' E 012°41'9 8.8
2016-Apr-30 11:33N 55°16' E 012°53'1010.4
2016-Apr-30 10:33N 55°16' E 013°12'1010.4
2016-Apr-30 09:33N 55°14' E 013°30'1110.7
2016-Apr-30 08:33N 55°14' E 013°48'1110.7
2016-Apr-30 07:33N 55°14' E 014°07'9 9.2
2016-Apr-30 06:33N 55°18' E 014°22'1010.3
2016-Apr-30 05:33N 55°25' E 014°34'1010.1
2016-Apr-30 04:33N 55°27' E 014°52'1010.2
2016-Apr-30 03:33N 55°27' E 015°10'1010.3
2016-Apr-30 02:33N 55°28' E 015°28'1010.2
2016-Apr-30 01:33N 55°29' E 015°46'1010.2
2016-Apr-30 00:33N 55°30' E 016°04'1010.4
2016-Apr-29 23:33N 55°31' E 016°22'1010.3
2016-Apr-29 22:33N 55°32' E 016°40'1010.2
2016-Apr-29 21:33N 55°33' E 016°58'1010.3
2016-Apr-29 20:33N 55°34' E 017°16'1010.3
2016-Apr-29 19:33N 55°34' E 017°34'1010.4
2016-Apr-29 18:33N 55°35' E 017°53'1110.5
2016-Apr-29 17:33N 55°36' E 018°11'1010.5
2016-Apr-29 16:33N 55°37' E 018°30'  
2016-Apr-26 12:15N 55°40' E 019°37'11611.5
2016-Apr-26 02:12N 55°29' E 016°13'1811.1
2016-Apr-26 00:33N 55°27' E 015°41'1111.1
2016-Apr-25 23:33N 55°26' E 015°22'1111.0
2016-Apr-25 22:33N 55°25' E 015°03'1111.0
2016-Apr-25 21:33N 55°24' E 014°44'1110.7
2016-Apr-25 20:33N 55°17' E 014°29'1111.1
2016-Apr-25 19:33N 55°10' E 014°14'1211.7
2016-Apr-25 18:33N 55°10' E 013°54'1111.3
2016-Apr-25 17:33N 55°12' E 013°34'1111.3
2016-Apr-25 16:33N 55°13' E 013°15'1111.4
2016-Apr-25 15:33N 55°15' E 012°55'1110.9
2016-Apr-25 14:33N 55°19' E 012°37'1010.1
2016-Apr-25 13:33N 55°29' E 012°33'1211.5
2016-Apr-25 12:33N 55°27' E 012°13'1 0.8
2016-Apr-25 11:33N 55°27' E 012°12'0 0.0
2016-Apr-25 10:27N 55°27' E 012°12'0 0.0
2016-Apr-25 09:27N 55°27' E 012°12'0 0.0
2016-Apr-25 08:18N 55°27' E 012°12'0 0.0
2016-Apr-25 07:33N 55°27' E 012°12'0 0.0
2016-Apr-25 06:33N 55°27' E 012°12'0 0.0
2016-Apr-25 05:33N 55°27' E 012°12'0 0.0
2016-Apr-25 04:33N 55°27' E 012°12'0 0.0
2016-Apr-25 03:30N 55°27' E 012°12'0 0.0
2016-Apr-25 02:33N 55°27' E 012°12'0 0.0
2016-Apr-25 01:30N 55°27' E 012°12'0 0.0
2016-Apr-25 00:30N 55°27' E 012°12'0 0.0
2016-Apr-24 23:30N 55°27' E 012°12'0 0.0
2016-Apr-24 22:27N 55°27' E 012°12'0 0.0
2016-Apr-24 21:30N 55°27' E 012°12'0 0.0
2016-Apr-24 20:33N 55°27' E 012°12'0 0.0
2016-Apr-24 19:30N 55°27' E 012°12'0 0.0
2016-Apr-24 18:33N 55°27' E 012°12'0 0.0
2016-Apr-24 17:33N 55°27' E 012°12'5 4.8
2016-Apr-24 16:33N 55°28' E 012°20'1110.6
2016-Apr-24 15:33N 55°30' E 012°39'9 9.2
2016-Apr-24 14:33N 55°39' E 012°41'1110.9
2016-Apr-24 13:33N 55°50' E 012°40'1110.9
2016-Apr-24 12:33N 56°01' E 012°38'9 9.2
2016-Apr-24 11:33N 56°08' E 012°28'1111.0
2016-Apr-24 10:33N 56°14' E 012°12'2510.9
2016-Apr-24 08:16N 56°37' E 011°55'811.7
2016-Apr-24 07:33N 56°45' E 011°51'1211.7
2016-Apr-24 06:33N 56°56' E 011°44'1111.3
2016-Apr-24 05:33N 57°07' E 011°37'1111.3
2016-Apr-24 04:33N 57°18' E 011°30'1111.3
2016-Apr-24 03:33N 57°28' E 011°22'1111.1
2016-Apr-24 02:32N 57°36' E 011°07'1210.9
2016-Apr-24 01:26N 57°44' E 010°50'12211.0
2016-Apr-23 14:21N 57°42' E 007°03'1011.9
2016-Apr-23 13:30N 57°43' E 006°44'1010.1
2016-Apr-23 12:33N 57°48' E 006°28'1111.2
2016-Apr-23 11:33N 57°58' E 006°23'  

Dump ship's entire track history